createdAt,value
2022-10-05T00:04:29.851Z,101103.22
2022-10-05T00:09:34.575Z,101106.94
2022-10-05T00:14:39.433Z,101106.94
2022-10-05T00:19:43.851Z,101109.47
2022-10-05T00:24:48.343Z,101090.16
2022-10-05T00:29:54.751Z,101078.72
2022-10-05T00:34:58.294Z,101082.66
2022-10-05T00:40:02.322Z,101094.38
2022-10-05T00:45:09.783Z,101093.78
2022-10-05T00:50:37.602Z,101093.34
2022-10-05T00:55:49.716Z,101082.81
2022-10-05T01:01:00.381Z,101083.53
2022-10-05T01:06:15.771Z,101099.28
2022-10-05T01:11:21.879Z,101092.22
2022-10-05T01:16:30.765Z,101087.03
2022-10-05T01:21:36.420Z,101086.06
2022-10-05T01:26:51.302Z,101087.47
2022-10-05T01:32:03.574Z,101076.63
2022-10-05T01:37:15.843Z,101065.63
2022-10-05T01:42:24.018Z,101066.47
2022-10-05T01:47:34.112Z,101057.34
2022-10-05T01:52:43.005Z,101053.13
2022-10-05T01:57:55.379Z,101033.97
2022-10-05T02:03:04.368Z,101040.75
2022-10-05T02:08:11.827Z,101044.41
2022-10-05T02:13:19.903Z,101030.22
2022-10-05T02:18:29.296Z,101025.84
2022-10-05T02:23:39.487Z,101018.38
2022-10-05T02:28:45.902Z,101024.53
2022-10-05T02:33:50.917Z,101002.19
2022-10-05T02:39:02.125Z,101004.72
2022-10-05T02:44:12.208Z,101011.75
2022-10-05T02:49:23.851Z,101016.53
2022-10-05T02:54:38.955Z,101008.06
2022-10-05T02:59:45.414Z,100992.88
2022-10-05T03:04:56.217Z,100994.44
2022-10-05T03:10:02.878Z,100977.25
2022-10-05T03:15:18.860Z,100973.59
2022-10-05T03:20:29.539Z,100989.78
2022-10-05T03:25:42.519Z,100994.28
2022-10-05T03:30:50.927Z,100991.50
2022-10-05T03:36:02.263Z,100990.06
2022-10-05T03:41:13.622Z,100979.66
2022-10-05T03:46:21.945Z,100965.56
2022-10-05T03:51:32.715Z,100956.53
2022-10-05T03:56:40.265Z,100951.47
2022-10-05T04:01:48.846Z,100955.00
2022-10-05T04:06:55.107Z,100948.94
2022-10-05T04:12:04.341Z,100941.38
2022-10-05T04:17:11.069Z,100932.22
2022-10-05T04:22:19.657Z,100911.22
2022-10-05T04:27:27.658Z,100922.22
2022-10-05T04:32:37.634Z,100908.19
2022-10-05T04:37:49.785Z,100911.84
2022-10-05T04:43:02.020Z,100906.50
2022-10-05T04:48:24.412Z,100898.88
2022-10-05T04:53:33.093Z,100912.44
2022-10-05T04:58:49.287Z,100903.69
2022-10-05T05:04:03.598Z,100906.59
2022-10-05T05:09:28.082Z,100920.59
2022-10-05T05:14:47.985Z,100914.09
2022-10-05T05:19:59.354Z,100906.66
2022-10-05T05:25:18.170Z,100923.25
2022-10-05T05:30:24.392Z,100923.97
2022-10-05T05:35:40.826Z,100925.25
2022-10-05T05:40:49.325Z,100945.38
2022-10-05T05:45:58.739Z,100952.94
2022-10-05T05:51:05.719Z,100952.53
2022-10-05T05:56:12.728Z,100938.88
2022-10-05T06:01:32.699Z,100936.63
2022-10-05T06:06:41.317Z,100931.72
2022-10-05T06:11:49.818Z,100935.63
2022-10-05T06:16:57.421Z,100923.69
2022-10-05T06:22:04.918Z,100935.25
2022-10-05T06:27:25.069Z,100934.91
2022-10-05T06:32:31.565Z,100933.25
2022-10-05T06:37:58.117Z,100940.25
2022-10-05T06:43:14.104Z,100937.03
2022-10-05T06:48:45.560Z,100938.59
2022-10-05T06:54:17.473Z,100942.47
2022-10-05T06:59:26.351Z,100930.44
2022-10-05T07:04:44.014Z,100936.34
2022-10-05T07:09:55.698Z,100932.78
2022-10-05T07:15:20.928Z,100937.78
2022-10-05T07:20:30.363Z,100938.66
2022-10-05T07:25:38.283Z,100938.00
2022-10-05T07:30:51.264Z,100936.34
2022-10-05T07:36:18.077Z,100941.31
2022-10-05T07:41:27.130Z,100936.25
2022-10-05T07:46:43.625Z,100927.75
2022-10-05T07:51:49.487Z,100928.16
2022-10-05T07:56:56.810Z,100936.75
2022-10-05T08:02:07.128Z,100926.59
2022-10-05T08:07:14.402Z,100928.53
2022-10-05T08:12:24.799Z,100935.50
2022-10-05T08:17:40.596Z,100926.84
2022-10-05T08:22:49.123Z,100930.25
2022-10-05T08:27:56.903Z,100933.34
2022-10-05T08:33:07.802Z,100940.97
2022-10-05T08:38:13.403Z,100928.88
2022-10-05T08:43:32.917Z,100927.44
2022-10-05T08:49:02.053Z,100927.59
2022-10-05T08:54:26.056Z,100926.91
2022-10-05T08:59:47.357Z,100928.41
2022-10-05T09:05:10.552Z,100936.97
2022-10-05T09:10:47.913Z,100949.09
2022-10-05T09:16:41.903Z,100949.44
2022-10-05T09:21:56.499Z,100942.22
2022-10-05T09:27:04.775Z,100951.78
2022-10-05T09:32:27.899Z,100947.91
2022-10-05T09:37:52.481Z,100947.69
2022-10-05T09:43:05.648Z,100949.00
2022-10-05T09:48:42.538Z,100945.72
2022-10-05T10:03:05.663Z,100930.44
2022-10-05T10:08:35.802Z,100936.50
2022-10-05T10:14:09.531Z,100935.06
2022-10-05T10:20:12.201Z,100942.34
2022-10-05T10:26:20.339Z,100924.47
2022-10-05T10:31:50.951Z,100938.50
2022-10-05T10:37:34.482Z,100934.25
2022-10-05T10:43:52.062Z,100927.81
2022-10-05T11:11:13.056Z,100902.56
2022-10-05T11:16:44.988Z,100895.47
2022-10-05T11:22:11.017Z,100891.63
2022-10-05T11:27:41.521Z,100876.78
2022-10-05T11:33:06.222Z,100868.06
2022-10-05T11:38:40.854Z,100855.25
2022-10-05T11:44:19.179Z,100837.84
2022-10-05T11:49:41.295Z,100832.72
2022-10-05T11:55:10.478Z,100814.31
2022-10-05T12:00:32.745Z,100814.34
2022-10-05T12:06:00.289Z,100804.06
2022-10-05T12:11:31.102Z,100797.06
2022-10-05T12:16:48.225Z,100798.72
2022-10-05T12:22:04.183Z,100786.38
2022-10-05T12:33:09.368Z,100771.03
2022-10-05T12:38:25.171Z,100768.72
2022-10-05T12:43:35.466Z,100755.59
2022-10-05T12:49:02.528Z,100753.13
2022-10-05T12:54:15.992Z,100749.88
2022-10-05T12:59:26.619Z,100746.94
2022-10-05T13:04:41.538Z,100730.22
2022-10-05T13:09:51.324Z,100729.66
2022-10-05T13:15:03.096Z,100733.66
2022-10-05T13:20:15.562Z,100730.44
2022-10-05T13:25:23.521Z,100713.25
2022-10-05T13:30:31.639Z,100713.78
2022-10-05T13:35:45.818Z,100700.88
2022-10-05T13:40:55.065Z,100689.84
2022-10-05T13:46:04.779Z,100694.66
2022-10-05T13:51:13.467Z,100700.81
2022-10-05T13:56:22.696Z,100695.22
2022-10-05T14:01:35.484Z,100695.63
2022-10-05T14:06:40.319Z,100686.56
2022-10-05T14:11:49.835Z,100679.84
2022-10-05T14:16:54.937Z,100676.91
2022-10-05T14:22:02.565Z,100666.13
2022-10-05T14:27:22.748Z,100659.75
2022-10-05T14:32:28.060Z,100665.88
2022-10-05T14:37:44.537Z,100661.00
2022-10-05T14:42:47.927Z,100649.94
2022-10-05T14:47:52.817Z,100635.63
2022-10-05T14:53:16.614Z,100629.38
2022-10-05T14:58:30.775Z,100624.69
2022-10-05T15:03:42.811Z,100617.69
2022-10-05T15:09:16.977Z,100609.75
2022-10-05T15:14:25.281Z,100612.41
2022-10-05T15:19:36.157Z,100602.84
2022-10-05T15:24:45.415Z,100600.78
2022-10-05T15:30:01.993Z,100592.91
2022-10-05T15:35:36.804Z,100587.53
2022-10-05T15:40:45.954Z,100596.16
2022-10-05T15:45:54.572Z,100587.47
2022-10-05T15:51:02.363Z,100581.53
2022-10-05T15:56:10.582Z,100583.13
2022-10-05T16:01:17.524Z,100575.44
2022-10-05T16:06:56.921Z,100580.25
2022-10-05T16:12:11.017Z,100580.88
2022-10-05T16:17:25.256Z,100581.44
2022-10-05T16:22:39.975Z,100583.06
2022-10-05T16:28:05.334Z,100571.88
2022-10-05T16:33:15.792Z,100572.22
2022-10-05T16:38:27.761Z,100570.91
2022-10-05T16:43:44.867Z,100572.28
2022-10-05T16:48:55.227Z,100582.25
2022-10-05T16:54:08.290Z,100585.91
2022-10-05T16:59:39.496Z,100593.38
2022-10-05T17:04:47.965Z,100591.22
2022-10-05T17:10:26.023Z,100599.91
2022-10-05T17:15:37.163Z,100621.25
2022-10-05T17:20:51.618Z,100627.81
2022-10-05T17:25:57.136Z,100641.75
2022-10-05T17:31:15.098Z,100633.09
2022-10-05T17:36:19.679Z,100646.78
2022-10-05T17:41:25.593Z,100650.22
2022-10-05T17:46:42.365Z,100658.41
2022-10-05T17:52:22.206Z,100668.06
2022-10-05T17:57:27.804Z,100681.22
2022-10-05T18:02:43.908Z,100683.06
2022-10-05T18:07:48.594Z,100692.06
2022-10-05T18:13:15.122Z,100706.59
2022-10-05T18:18:54.589Z,100703.50
2022-10-05T18:24:18.570Z,100709.16
2022-10-05T18:29:46.162Z,100713.97
2022-10-05T18:34:58.643Z,100712.47
2022-10-05T18:40:22.519Z,100719.47
2022-10-05T18:45:32.788Z,100728.56
2022-10-05T18:50:42.087Z,100730.47
2022-10-05T18:55:54.401Z,100740.34
2022-10-05T19:01:39.077Z,100751.78
2022-10-05T19:06:50.111Z,100750.53
2022-10-05T19:11:59.727Z,100750.66
2022-10-05T19:17:22.349Z,100748.19
2022-10-05T19:22:37.021Z,100743.22
2022-10-05T19:27:53.108Z,100750.22
2022-10-05T19:33:18.279Z,100761.22
2022-10-05T19:38:27.647Z,100762.72
2022-10-05T19:43:44.270Z,100756.41
2022-10-05T19:48:50.111Z,100762.50
2022-10-05T19:53:56.007Z,100769.88
2022-10-05T19:59:13.162Z,100803.56
2022-10-05T20:04:32.930Z,100799.97
2022-10-05T20:09:51.919Z,100799.66
2022-10-05T20:15:35.834Z,100805.94
2022-10-05T20:20:44.494Z,100807.81
2022-10-05T20:26:04.703Z,100797.19
2022-10-05T20:31:10.042Z,100801.22
2022-10-05T20:36:13.751Z,100821.31
2022-10-05T20:41:17.357Z,100818.16
2022-10-05T20:46:23.058Z,100825.91
2022-10-05T20:51:28.816Z,100836.22
2022-10-05T20:56:32.324Z,100831.34
2022-10-05T21:01:37.191Z,100838.38
2022-10-05T21:06:41.043Z,100848.59
2022-10-05T21:11:45.282Z,100856.59
2022-10-05T21:16:50.253Z,100850.28
2022-10-05T21:21:54.352Z,100841.78
2022-10-05T21:26:57.961Z,100844.81
2022-10-05T21:32:02.985Z,100847.22
2022-10-05T21:37:06.506Z,100843.03
2022-10-05T21:42:09.913Z,100832.66
2022-10-05T21:47:14.926Z,100834.31
2022-10-05T21:52:18.639Z,100834.38
2022-10-05T21:57:22.274Z,100846.16
2022-10-05T22:02:27.227Z,100852.75
2022-10-05T22:07:30.629Z,100855.38
2022-10-05T22:12:34.650Z,100853.56
2022-10-05T22:17:40.603Z,100868.88
2022-10-05T22:22:44.193Z,100873.56
2022-10-05T22:27:48.230Z,100872.38
2022-10-05T22:32:53.299Z,100878.81
2022-10-05T22:37:57.015Z,100883.78
2022-10-05T22:43:00.555Z,100880.81
2022-10-05T22:48:06.034Z,100879.84
2022-10-05T22:53:09.597Z,100883.31
2022-10-05T22:58:13.126Z,100900.41
2022-10-05T23:03:18.206Z,100901.69
2022-10-05T23:08:21.676Z,100908.72
2022-10-05T23:13:25.233Z,100912.09
2022-10-05T23:18:31.167Z,100927.72
2022-10-05T23:23:39.803Z,100922.75
2022-10-05T23:28:47.136Z,100938.63
2022-10-05T23:33:52.682Z,100929.56
2022-10-05T23:39:08.921Z,100936.03
2022-10-05T23:44:12.635Z,100951.47
2022-10-05T23:49:18.032Z,100953.31
2022-10-05T23:54:21.779Z,100960.84
2022-10-05T23:59:25.642Z,100960.72
